createdAt,value
2022-10-06T00:02:35.200Z,101116.13
2022-10-06T00:07:37.918Z,101124.44
2022-10-06T00:12:42.086Z,101130.06
2022-10-06T00:17:46.269Z,101151.56
2022-10-06T00:22:49.865Z,101151.16
2022-10-06T00:27:54.161Z,101164.78
2022-10-06T00:33:00.743Z,101173.41
2022-10-06T00:38:04.648Z,101182.41
2022-10-06T00:43:07.689Z,101184.66
2022-10-06T00:48:16.537Z,101189.81
2022-10-06T00:53:19.559Z,101188.22
2022-10-06T00:58:22.731Z,101209.06
2022-10-06T01:03:30.860Z,101214.47
2022-10-06T01:08:35.412Z,101205.41
2022-10-06T01:13:38.219Z,101223.47
2022-10-06T01:18:44.742Z,101234.88
2022-10-06T01:23:49.864Z,101235.66
2022-10-06T01:28:53.267Z,101241.59
2022-10-06T01:33:57.165Z,101247.44
2022-10-06T01:39:01.831Z,101254.94
2022-10-06T01:44:04.967Z,101256.59
2022-10-06T01:49:07.873Z,101260.03
2022-10-06T01:54:12.400Z,101273.13
2022-10-06T01:59:15.232Z,101291.28
2022-10-06T02:04:18.344Z,101301.97
2022-10-06T02:09:22.518Z,101317.91
2022-10-06T02:14:25.798Z,101324.69
2022-10-06T02:19:29.795Z,101333.38
2022-10-06T02:24:35.760Z,101335.28
2022-10-06T02:29:39.370Z,101349.59
2022-10-06T02:34:43.604Z,101359.00
2022-10-06T02:39:48.575Z,101376.13
2022-10-06T02:44:52.194Z,101378.00
2022-10-06T02:49:55.089Z,101394.41
2022-10-06T02:54:59.374Z,101407.00
2022-10-06T03:00:02.123Z,101408.28
2022-10-06T03:05:08.505Z,101413.31
2022-10-06T03:10:12.914Z,101436.88
2022-10-06T03:15:15.779Z,101429.47
2022-10-06T03:20:18.870Z,101437.22
2022-10-06T03:25:23.248Z,101460.78
2022-10-06T03:30:26.049Z,101475.56
2022-10-06T03:35:29.079Z,101478.69
2022-10-06T03:40:33.910Z,101483.00
2022-10-06T03:45:36.801Z,101499.53
2022-10-06T03:50:39.678Z,101499.78
2022-10-06T03:55:43.905Z,101508.63
2022-10-06T04:00:46.995Z,101524.66
2022-10-06T04:05:54.215Z,101520.03
2022-10-06T04:11:06.901Z,101537.34
2022-10-06T04:16:14.873Z,101552.25
2022-10-06T04:21:18.565Z,101558.56
2022-10-06T04:26:24.559Z,101562.28
2022-10-06T04:31:30.221Z,101576.84
2022-10-06T04:36:35.672Z,101580.22
2022-10-06T04:41:41.757Z,101591.63
2022-10-06T04:46:46.941Z,101598.06
2022-10-06T04:51:50.841Z,101610.78
2022-10-06T04:56:56.698Z,101614.44
2022-10-06T05:02:02.627Z,101626.28
2022-10-06T05:07:06.079Z,101641.47
2022-10-06T05:12:10.856Z,101655.78
2022-10-06T05:17:14.516Z,101669.88
2022-10-06T05:22:17.640Z,101681.41
2022-10-06T05:27:22.215Z,101690.97
2022-10-06T05:32:25.119Z,101711.16
2022-10-06T05:37:29.577Z,101713.75
2022-10-06T05:42:34.129Z,101725.88
2022-10-06T05:47:37.013Z,101725.28
2022-10-06T05:52:40.457Z,101738.31
2022-10-06T05:57:44.814Z,101746.97
2022-10-06T06:02:47.964Z,101761.06
2022-10-06T06:07:51.181Z,101781.53
2022-10-06T06:12:55.411Z,101788.47
2022-10-06T06:18:27.678Z,101797.25
2022-10-06T06:23:34.337Z,101798.97
2022-10-06T06:28:40.239Z,101810.53
2022-10-06T06:33:43.634Z,101827.16
2022-10-06T06:38:49.648Z,101845.41
2022-10-06T06:43:54.864Z,101855.75
2022-10-06T06:49:07.212Z,101854.34
2022-10-06T06:54:14.492Z,101852.59
2022-10-06T06:59:21.285Z,101868.22
2022-10-06T07:04:26.509Z,101878.47
2022-10-06T07:09:29.521Z,101892.66
2022-10-06T07:15:01.148Z,101896.28
2022-10-06T07:20:24.541Z,101906.47
2022-10-06T07:25:27.962Z,101923.78
2022-10-06T07:30:40.432Z,101934.47
2022-10-06T07:35:47.411Z,101940.03
2022-10-06T07:41:17.939Z,101947.28
2022-10-06T07:46:21.233Z,101958.78
2022-10-06T07:51:33.224Z,101960.63
2022-10-06T07:56:37.741Z,101985.66
2022-10-06T08:01:44.076Z,101993.53
2022-10-06T08:06:49.246Z,101998.63
2022-10-06T08:11:52.915Z,102011.09
2022-10-06T08:16:57.461Z,102020.31
2022-10-06T08:22:04.620Z,102023.28
2022-10-06T08:27:09.703Z,102032.75
2022-10-06T08:32:13.814Z,102045.66
2022-10-06T08:37:20.136Z,102053.81
2022-10-06T08:42:31.919Z,102055.63
2022-10-06T08:47:37.923Z,102059.91
2022-10-06T08:52:50.404Z,102067.47
2022-10-06T09:03:23.807Z,102086.50
2022-10-06T09:08:41.987Z,102096.13
2022-10-06T09:13:52.128Z,102107.22
2022-10-06T09:19:12.401Z,102119.41
2022-10-06T09:24:17.983Z,102114.91
2022-10-06T09:29:20.831Z,102134.09
2022-10-06T09:34:34.903Z,102141.03
2022-10-06T09:39:39.424Z,102142.91
2022-10-06T09:44:50.116Z,102156.75
2022-10-06T09:50:16.422Z,102160.28
2022-10-06T09:55:22.857Z,102163.72
2022-10-06T10:00:30.391Z,102167.06
2022-10-06T10:05:37.811Z,102168.03
2022-10-06T10:10:41.369Z,102172.78
2022-10-06T10:15:53.522Z,102183.31
2022-10-06T10:21:00.437Z,102186.19
2022-10-06T10:26:17.476Z,102196.13
2022-10-06T10:31:27.498Z,102201.84
2022-10-06T10:36:38.448Z,102200.75
2022-10-06T10:41:47.127Z,102217.19
2022-10-06T10:46:53.404Z,102217.31
2022-10-06T10:52:03.738Z,102217.53
2022-10-06T10:57:14.885Z,102236.03
2022-10-06T11:02:20.798Z,102227.94
2022-10-06T11:07:29.464Z,102229.88
2022-10-06T11:12:54.457Z,102225.56
2022-10-06T11:18:05.733Z,102224.47
2022-10-06T11:23:31.598Z,102239.44
2022-10-06T11:28:46.017Z,102237.00
2022-10-06T11:33:52.712Z,102245.75
2022-10-06T11:39:03.945Z,102241.22
2022-10-06T11:44:16.739Z,102239.91
2022-10-06T11:49:53.247Z,102248.56
2022-10-06T11:55:07.339Z,102253.50
2022-10-06T12:00:46.011Z,102256.13
2022-10-06T12:05:56.252Z,102258.34
2022-10-06T12:11:01.397Z,102256.75
2022-10-06T12:22:01.966Z,102251.69
2022-10-06T12:27:49.327Z,102262.44
2022-10-06T12:32:57.353Z,102267.78
2022-10-06T12:38:04.719Z,102259.53
2022-10-06T12:43:29.894Z,102261.63
2022-10-06T12:48:40.086Z,102259.72
2022-10-06T12:53:52.443Z,102260.72
2022-10-06T12:58:56.819Z,102271.81
2022-10-06T13:04:01.023Z,102272.50
2022-10-06T13:09:08.543Z,102260.97
2022-10-06T13:14:15.000Z,102268.88
2022-10-06T13:19:21.742Z,102277.28
2022-10-06T13:24:27.485Z,102268.69
2022-10-06T13:29:31.773Z,102268.84
2022-10-06T13:34:43.239Z,102269.47
2022-10-06T13:39:46.685Z,102264.63
2022-10-06T13:44:57.503Z,102271.56
2022-10-06T13:50:04.102Z,102265.66
2022-10-06T13:55:16.604Z,102265.13
2022-10-06T14:00:23.652Z,102277.84
2022-10-06T14:05:32.661Z,102275.84
2022-10-06T14:10:47.465Z,102281.13
2022-10-06T14:15:53.993Z,102286.78
2022-10-06T14:20:58.106Z,102284.97
2022-10-06T14:26:01.356Z,102286.94
2022-10-06T14:31:05.661Z,102288.31
2022-10-06T14:36:17.036Z,102291.94
2022-10-06T14:41:24.908Z,102293.38
2022-10-06T14:46:30.042Z,102301.00
2022-10-06T14:51:36.580Z,102290.00
2022-10-06T14:56:41.133Z,102292.28
2022-10-06T15:01:45.717Z,102290.06
2022-10-06T15:07:06.270Z,102289.59
2022-10-06T15:12:09.081Z,102286.66
2022-10-06T15:17:13.201Z,102293.69
2022-10-06T15:22:15.990Z,102291.44
2022-10-06T15:27:36.177Z,102296.78
2022-10-06T15:32:40.279Z,102304.19
2022-10-06T15:37:43.064Z,102301.59
2022-10-06T15:42:46.675Z,102306.66
2022-10-06T15:47:52.803Z,102314.63
2022-10-06T15:52:55.537Z,102317.00
2022-10-06T15:57:58.512Z,102317.09
2022-10-06T16:03:09.206Z,102319.69
2022-10-06T16:08:12.101Z,102323.00
2022-10-06T16:13:15.206Z,102323.88
2022-10-06T16:18:19.282Z,102323.09
2022-10-06T16:23:22.738Z,102331.13
2022-10-06T16:28:25.846Z,102325.88
2022-10-06T16:33:29.969Z,102328.25
2022-10-06T16:38:32.893Z,102325.72
2022-10-06T16:43:37.671Z,102332.09
2022-10-06T16:48:43.792Z,102339.22
2022-10-06T16:53:48.623Z,102346.03
2022-10-06T16:58:53.908Z,102356.09
2022-10-06T17:04:03.691Z,102355.47
2022-10-06T17:09:08.094Z,102366.47
2022-10-06T17:14:11.331Z,102370.53
2022-10-06T17:19:19.955Z,102364.81
2022-10-06T17:24:25.494Z,102362.75
2022-10-06T17:29:28.386Z,102357.69
2022-10-06T17:34:34.207Z,102364.88
2022-10-06T17:39:41.565Z,102361.50
2022-10-06T17:44:53.235Z,102362.00
2022-10-06T17:49:57.468Z,102365.00
2022-10-06T17:55:01.004Z,102363.28
2022-10-06T18:00:07.435Z,102367.19
2022-10-06T18:05:16.690Z,102371.47
2022-10-06T18:10:37.360Z,102378.00
2022-10-06T18:15:40.635Z,102373.44
2022-10-06T18:20:49.509Z,102371.34
2022-10-06T18:25:52.434Z,102368.22
2022-10-06T18:30:55.243Z,102360.94
2022-10-06T18:36:11.713Z,102369.91
2022-10-06T18:41:31.514Z,102371.06
2022-10-06T18:46:52.274Z,102377.81
2022-10-06T18:51:58.524Z,102373.13
2022-10-06T18:57:02.034Z,102372.19
2022-10-06T19:02:13.729Z,102377.00
2022-10-06T19:07:20.801Z,102378.06
2022-10-06T19:12:23.981Z,102374.91
2022-10-06T19:17:29.020Z,102373.31
2022-10-06T19:22:37.040Z,102382.56
2022-10-06T19:27:40.518Z,102384.56
2022-10-06T19:32:44.327Z,102391.19
2022-10-06T19:37:51.176Z,102393.91
2022-10-06T19:42:54.093Z,102382.09
2022-10-06T19:47:58.073Z,102391.00
2022-10-06T19:53:04.692Z,102384.41
2022-10-06T19:58:17.058Z,102386.06
2022-10-06T20:03:50.822Z,102374.25
2022-10-06T20:09:09.144Z,102385.38
2022-10-06T20:19:57.811Z,102389.22
2022-10-06T20:25:18.480Z,102395.47
2022-10-06T20:30:24.324Z,102392.97
2022-10-06T20:35:27.090Z,102397.31
2022-10-06T20:40:49.118Z,102389.75
2022-10-06T20:45:54.720Z,102393.88
2022-10-06T20:50:57.772Z,102389.56
2022-10-06T20:56:01.920Z,102388.03
2022-10-06T21:01:06.988Z,102399.84
2022-10-06T21:06:10.450Z,102392.94
2022-10-06T21:11:17.680Z,102389.13
2022-10-06T21:16:21.273Z,102392.00
2022-10-06T21:21:24.190Z,102390.97
2022-10-06T21:26:28.891Z,102389.63
2022-10-06T21:31:32.142Z,102389.06
2022-10-06T21:36:35.097Z,102383.31
2022-10-06T21:41:40.261Z,102382.75
2022-10-06T21:46:48.155Z,102383.03
2022-10-06T21:51:52.740Z,102384.56
2022-10-06T21:56:57.868Z,102376.09
2022-10-06T22:02:00.712Z,102373.88
2022-10-06T22:07:03.544Z,102362.16
2022-10-06T22:12:07.674Z,102364.91
2022-10-06T22:17:10.398Z,102361.41
2022-10-06T22:22:13.176Z,102359.16
2022-10-06T22:27:20.379Z,102357.59
2022-10-06T22:32:24.167Z,102352.59
2022-10-06T22:37:28.188Z,102343.03
2022-10-06T22:42:32.318Z,102347.25
2022-10-06T22:47:35.039Z,102341.91
2022-10-06T22:52:37.796Z,102332.75
2022-10-06T22:57:42.180Z,102333.25
2022-10-06T23:02:46.246Z,102331.25
2022-10-06T23:07:53.465Z,102311.19
2022-10-06T23:12:59.757Z,102326.44
2022-10-06T23:18:03.852Z,102315.41
2022-10-06T23:23:06.727Z,102301.78
2022-10-06T23:28:10.824Z,102301.41
2022-10-06T23:33:13.662Z,102305.25
2022-10-06T23:38:16.393Z,102310.06
2022-10-06T23:43:20.876Z,102304.00
2022-10-06T23:48:23.632Z,102301.91
2022-10-06T23:53:26.848Z,102306.06
2022-10-06T23:58:30.945Z,102291.38
